sensor_id;sensor_type;location;lat;lon;timestamp;pressure;altitude;pressure_sealevel;temperature;humidity
7309;BME280;3695;53.330;9.876;2023-03-16T00:02:25;102620.53;;;-0.74;100.00
7309;BME280;3695;53.330;9.876;2023-03-16T00:04:52;102740.16;;;-0.71;100.00
7309;BME280;3695;53.330;9.876;2023-03-16T00:07:19;102688.34;;;-0.79;100.00
7309;BME280;3695;53.330;9.876;2023-03-16T00:09:45;102867.59;;;-0.50;100.00
7309;BME280;3695;53.330;9.876;2023-03-16T00:12:13;102757.72;;;-0.54;100.00
7309;BME280;3695;53.330;9.876;2023-03-16T00:14:41;102634.47;;;-0.83;100.00
7309;BME280;3695;53.330;9.876;2023-03-16T00:17:11;102799.88;;;-0.75;100.00
7309;BME280;3695;53.330;9.876;2023-03-16T00:19:44;102818.13;;;-0.69;100.00
7309;BME280;3695;53.330;9.876;2023-03-16T00:22:11;102750.81;;;-0.71;100.00
7309;BME280;3695;53.330;9.876;2023-03-16T00:24:39;102792.25;;;-0.67;100.00
7309;BME280;3695;53.330;9.876;2023-03-16T00:27:07;102831.81;;;-0.60;100.00
7309;BME280;3695;53.330;9.876;2023-03-16T00:29:34;102612.72;;;-0.89;100.00
7309;BME280;3695;53.330;9.876;2023-03-16T00:32:00;102737.50;;;-0.99;100.00
7309;BME280;3695;53.330;9.876;2023-03-16T00:34:28;102714.16;;;-0.94;100.00
7309;BME280;3695;53.330;9.876;2023-03-16T00:36:58;102658.06;;;-1.05;100.00
7309;BME280;3695;53.330;9.876;2023-03-16T00:39:25;102779.91;;;-0.96;100.00
7309;BME280;3695;53.330;9.876;2023-03-16T00:41:52;102723.84;;;-0.93;100.00
7309;BME280;3695;53.330;9.876;2023-03-16T00:44:22;102733.41;;;-1.05;100.00
7309;BME280;3695;53.330;9.876;2023-03-16T00:46:48;102877.00;;;-0.87;100.00
7309;BME280;3695;53.330;9.876;2023-03-16T00:49:15;102801.22;;;-0.82;100.00
7309;BME280;3695;53.330;9.876;2023-03-16T00:51:43;102690.44;;;-0.99;100.00
7309;BME280;3695;53.330;9.876;2023-03-16T00:54:10;102779.13;;;-0.98;100.00
7309;BME280;3695;53.330;9.876;2023-03-16T00:56:37;102695.50;;;-1.08;100.00
7309;BME280;3695;53.330;9.876;2023-03-16T00:59:03;102793.72;;;-0.89;100.00
7309;BME280;3695;53.330;9.876;2023-03-16T01:01:31;102676.47;;;-1.02;100.00
7309;BME280;3695;53.330;9.876;2023-03-16T01:03:57;102635.09;;;-1.20;100.00
7309;BME280;3695;53.330;9.876;2023-03-16T01:06:25;102792.72;;;-1.03;100.00
7309;BME280;3695;53.330;9.876;2023-03-16T01:08:52;102635.38;;;-1.25;100.00
7309;BME280;3695;53.330;9.876;2023-03-16T01:11:21;102833.41;;;-1.01;100.00
7309;BME280;3695;53.330;9.876;2023-03-16T01:13:49;102634.88;;;-1.17;100.00
7309;BME280;3695;53.330;9.876;2023-03-16T01:16:18;102713.56;;;-1.13;100.00
7309;BME280;3695;53.330;9.876;2023-03-16T01:18:47;102751.66;;;-1.13;100.00
7309;BME280;3695;53.330;9.876;2023-03-16T01:21:14;102766.78;;;-0.99;100.00
7309;BME280;3695;53.330;9.876;2023-03-16T01:23:41;102740.66;;;-0.92;100.00
7309;BME280;3695;53.330;9.876;2023-03-16T01:26:10;102771.25;;;-1.00;100.00
7309;BME280;3695;53.330;9.876;2023-03-16T01:28:37;102590.59;;;-1.18;100.00
7309;BME280;3695;53.330;9.876;2023-03-16T01:31:05;102695.69;;;-1.25;100.00
7309;BME280;3695;53.330;9.876;2023-03-16T01:33:32;102704.25;;;-1.20;100.00
7309;BME280;3695;53.330;9.876;2023-03-16T01:36:00;102732.19;;;-1.13;100.00
7309;BME280;3695;53.330;9.876;2023-03-16T01:38:28;102682.50;;;-1.13;100.00
7309;BME280;3695;53.330;9.876;2023-03-16T01:40:54;102713.84;;;-1.18;100.00
7309;BME280;3695;53.330;9.876;2023-03-16T01:43:25;102753.94;;;-1.07;100.00
7309;BME280;3695;53.330;9.876;2023-03-16T01:46:18;102738.66;;;-1.03;100.00
7309;BME280;3695;53.330;9.876;2023-03-16T01:48:49;102746.16;;;-1.10;100.00
7309;BME280;3695;53.330;9.876;2023-03-16T01:51:20;102806.31;;;-1.07;100.00
7309;BME280;3695;53.330;9.876;2023-03-16T01:53:50;102697.59;;;-1.13;100.00
7309;BME280;3695;53.330;9.876;2023-03-16T01:56:21;102698.28;;;-1.24;100.00
7309;BME280;3695;53.330;9.876;2023-03-16T01:58:51;102829.50;;;-1.09;100.00
7309;BME280;3695;53.330;9.876;2023-03-16T02:01:23;102876.50;;;-0.94;100.00
7309;BME280;3695;53.330;9.876;2023-03-16T02:03:51;102737.22;;;-1.09;100.00
7309;BME280;3695;53.330;9.876;2023-03-16T02:06:20;102656.16;;;-1.17;100.00
7309;BME280;3695;53.330;9.876;2023-03-16T02:08:48;102750.63;;;-1.10;100.00
7309;BME280;3695;53.330;9.876;2023-03-16T02:11:15;102703.69;;;-1.25;100.00
7309;BME280;3695;53.330;9.876;2023-03-16T02:13:43;102744.81;;;-1.17;100.00
7309;BME280;3695;53.330;9.876;2023-03-16T02:16:12;102647.63;;;-1.37;100.00
7309;BME280;3695;53.330;9.876;2023-03-16T02:18:43;102813.25;;;-1.19;100.00
7309;BME280;3695;53.330;9.876;2023-03-16T02:21:16;102729.72;;;-1.16;100.00
7309;BME280;3695;53.330;9.876;2023-03-16T02:23:44;102664.81;;;-1.28;100.00
7309;BME280;3695;53.330;9.876;2023-03-16T02:26:17;102601.38;;;-1.34;100.00
7309;BME280;3695;53.330;9.876;2023-03-16T02:28:53;102715.09;;;-1.23;100.00
7309;BME280;3695;53.330;9.876;2023-03-16T02:31:24;102630.53;;;-1.33;100.00
7309;BME280;3695;53.330;9.876;2023-03-16T02:33:53;102684.50;;;-1.31;100.00
7309;BME280;3695;53.330;9.876;2023-03-16T02:36:20;102654.84;;;-1.24;100.00
7309;BME280;3695;53.330;9.876;2023-03-16T02:38:46;102623.13;;;-1.28;100.00
7309;BME280;3695;53.330;9.876;2023-03-16T02:41:15;102661.50;;;-1.32;100.00
7309;BME280;3695;53.330;9.876;2023-03-16T02:43:45;102745.31;;;-1.24;100.00
7309;BME280;3695;53.330;9.876;2023-03-16T02:46:14;102575.63;;;-1.34;100.00
7309;BME280;3695;53.330;9.876;2023-03-16T02:48:45;102614.97;;;-1.39;100.00
7309;BME280;3695;53.330;9.876;2023-03-16T02:51:13;102691.16;;;-1.38;100.00
7309;BME280;3695;53.330;9.876;2023-03-16T02:53:40;102608.28;;;-1.46;100.00
7309;BME280;3695;53.330;9.876;2023-03-16T02:56:07;102659.56;;;-1.44;100.00
7309;BME280;3695;53.330;9.876;2023-03-16T02:58:33;102819.03;;;-1.27;100.00
7309;BME280;3695;53.330;9.876;2023-03-16T03:01:00;102773.03;;;-1.29;100.00
7309;BME280;3695;53.330;9.876;2023-03-16T03:03:26;102661.78;;;-1.36;100.00
7309;BME280;3695;53.330;9.876;2023-03-16T03:05:54;102644.97;;;-1.37;100.00
7309;BME280;3695;53.330;9.876;2023-03-16T03:08:20;102775.31;;;-1.22;100.00
7309;BME280;3695;53.330;9.876;2023-03-16T03:10:47;102744.72;;;-1.15;100.00
7309;BME280;3695;53.330;9.876;2023-03-16T03:13:14;102801.56;;;-1.02;100.00
7309;BME280;3695;53.330;9.876;2023-03-16T03:15:41;102643.72;;;-1.17;100.00
7309;BME280;3695;53.330;9.876;2023-03-16T03:18:07;102517.31;;;-1.37;100.00
7309;BME280;3695;53.330;9.876;2023-03-16T03:20:33;102597.09;;;-1.37;100.00
7309;BME280;3695;53.330;9.876;2023-03-16T03:23:02;102695.50;;;-1.22;100.00
7309;BME280;3695;53.330;9.876;2023-03-16T03:25:29;102542.97;;;-1.36;100.00
7309;BME280;3695;53.330;9.876;2023-03-16T03:27:59;102565.00;;;-1.34;100.00
7309;BME280;3695;53.330;9.876;2023-03-16T03:30:26;102576.88;;;-1.39;100.00
7309;BME280;3695;53.330;9.876;2023-03-16T03:32:53;102720.59;;;-1.27;100.00
7309;BME280;3695;53.330;9.876;2023-03-16T03:35:20;102598.41;;;-1.30;100.00
7309;BME280;3695;53.330;9.876;2023-03-16T03:37:47;102716.59;;;-1.19;100.00
7309;BME280;3695;53.330;9.876;2023-03-16T03:40:17;102698.19;;;-1.22;100.00
7309;BME280;3695;53.330;9.876;2023-03-16T03:42:43;102664.25;;;-1.19;100.00
7309;BME280;3695;53.330;9.876;2023-03-16T03:45:11;102605.25;;;-1.25;100.00
7309;BME280;3695;53.330;9.876;2023-03-16T03:47:38;102614.00;;;-1.23;100.00
7309;BME280;3695;53.330;9.876;2023-03-16T03:50:07;102613.25;;;-1.25;100.00
7309;BME280;3695;53.330;9.876;2023-03-16T03:52:33;102589.28;;;-1.25;100.00
7309;BME280;3695;53.330;9.876;2023-03-16T03:55:00;102603.34;;;-1.23;100.00
7309;BME280;3695;53.330;9.876;2023-03-16T03:57:27;102652.75;;;-1.19;100.00
7309;BME280;3695;53.330;9.876;2023-03-16T03:59:54;102532.88;;;-1.31;100.00
7309;BME280;3695;53.330;9.876;2023-03-16T04:02:20;102675.94;;;-1.21;100.00
7309;BME280;3695;53.330;9.876;2023-03-16T04:04:47;102843.97;;;-0.99;100.00
7309;BME280;3695;53.330;9.876;2023-03-16T04:07:14;102595.34;;;-1.09;100.00
7309;BME280;3695;53.330;9.876;2023-03-16T04:09:40;102890.97;;;-0.84;100.00
7309;BME280;3695;53.330;9.876;2023-03-16T04:12:07;102614.31;;;-1.01;100.00
7309;BME280;3695;53.330;9.876;2023-03-16T04:14:35;102748.34;;;-0.88;100.00
7309;BME280;3695;53.330;9.876;2023-03-16T04:17:01;102788.84;;;-0.83;100.00
7309;BME280;3695;53.330;9.876;2023-03-16T04:19:29;102668.69;;;-0.91;100.00
7309;BME280;3695;53.330;9.876;2023-03-16T04:21:55;102710.03;;;-0.85;100.00
7309;BME280;3695;53.330;9.876;2023-03-16T04:24:22;102857.31;;;-0.71;100.00
7309;BME280;3695;53.330;9.876;2023-03-16T04:26:48;102559.00;;;-0.96;100.00
7309;BME280;3695;53.330;9.876;2023-03-16T04:29:15;102506.06;;;-1.01;100.00
7309;BME280;3695;53.330;9.876;2023-03-16T04:31:44;102388.84;;;-1.12;100.00
7309;BME280;3695;53.330;9.876;2023-03-16T04:34:11;102558.84;;;-1.07;100.00
7309;BME280;3695;53.330;9.876;2023-03-16T04:36:38;102702.56;;;-0.93;100.00
7309;BME280;3695;53.330;9.876;2023-03-16T04:39:05;102713.75;;;-0.88;100.00
7309;BME280;3695;53.330;9.876;2023-03-16T04:41:33;102617.94;;;-1.02;100.00
7309;BME280;3695;53.330;9.876;2023-03-16T04:43:59;102689.03;;;-0.90;100.00
7309;BME280;3695;53.330;9.876;2023-03-16T04:46:27;102664.03;;;-0.87;100.00
7309;BME280;3695;53.330;9.876;2023-03-16T04:48:55;102623.81;;;-0.97;100.00
7309;BME280;3695;53.330;9.876;2023-03-16T04:51:22;102324.78;;;-1.21;100.00
7309;BME280;3695;53.330;9.876;2023-03-16T04:53:49;102313.81;;;-1.30;100.00
7309;BME280;3695;53.330;9.876;2023-03-16T04:56:15;102301.16;;;-1.39;100.00
7309;BME280;3695;53.330;9.876;2023-03-16T04:58:43;102625.75;;;-1.13;100.00
7309;BME280;3695;53.330;9.876;2023-03-16T05:01:09;102569.13;;;-1.15;100.00
7309;BME280;3695;53.330;9.876;2023-03-16T05:03:36;102292.22;;;-1.38;100.00
7309;BME280;3695;53.330;9.876;2023-03-16T05:06:04;102573.34;;;-1.25;100.00
7309;BME280;3695;53.330;9.876;2023-03-16T05:08:31;102544.94;;;-1.25;100.00
7309;BME280;3695;53.330;9.876;2023-03-16T05:10:57;102470.94;;;-1.33;100.00
7309;BME280;3695;53.330;9.876;2023-03-16T05:13:24;102262.81;;;-1.49;100.00
7309;BME280;3695;53.330;9.876;2023-03-16T05:15:51;102486.06;;;-1.33;100.00
7309;BME280;3695;53.330;9.876;2023-03-16T05:18:18;102403.69;;;-1.35;100.00
7309;BME280;3695;53.330;9.876;2023-03-16T05:20:48;102515.97;;;-1.30;100.00
7309;BME280;3695;53.330;9.876;2023-03-16T05:23:16;102394.97;;;-1.37;100.00
7309;BME280;3695;53.330;9.876;2023-03-16T05:25:42;102539.16;;;-1.32;100.00
7309;BME280;3695;53.330;9.876;2023-03-16T05:28:09;102537.25;;;-1.30;100.00
7309;BME280;3695;53.330;9.876;2023-03-16T05:30:35;102693.22;;;-1.14;100.00
7309;BME280;3695;53.330;9.876;2023-03-16T05:33:02;102630.31;;;-1.15;100.00
7309;BME280;3695;53.330;9.876;2023-03-16T05:35:29;102726.94;;;-1.01;100.00
7309;BME280;3695;53.330;9.876;2023-03-16T05:37:56;102667.34;;;-0.98;100.00
7309;BME280;3695;53.330;9.876;2023-03-16T05:40:24;102741.31;;;-0.89;100.00
7309;BME280;3695;53.330;9.876;2023-03-16T05:42:54;102833.94;;;-0.80;100.00
7309;BME280;3695;53.330;9.876;2023-03-16T05:45:21;102817.47;;;-0.72;100.00
7309;BME280;3695;53.330;9.876;2023-03-16T05:47:48;102740.34;;;-0.74;100.00
7309;BME280;3695;53.330;9.876;2023-03-16T05:50:15;102756.13;;;-0.71;100.00
7309;BME280;3695;53.330;9.876;2023-03-16T05:52:43;102666.75;;;-0.75;100.00
7309;BME280;3695;53.330;9.876;2023-03-16T05:55:10;102569.91;;;-0.86;100.00
7309;BME280;3695;53.330;9.876;2023-03-16T05:57:40;102757.00;;;-0.70;100.00
7309;BME280;3695;53.330;9.876;2023-03-16T06:00:11;102705.25;;;-0.66;100.00
7309;BME280;3695;53.330;9.876;2023-03-16T06:02:39;102700.56;;;-0.63;100.00
7309;BME280;3695;53.330;9.876;2023-03-16T06:05:06;102660.84;;;-0.66;100.00
7309;BME280;3695;53.330;9.876;2023-03-16T06:07:34;102720.72;;;-0.58;100.00
7309;BME280;3695;53.330;9.876;2023-03-16T06:10:00;102801.84;;;-0.50;100.00
7309;BME280;3695;53.330;9.876;2023-03-16T06:12:27;102839.63;;;-0.43;100.00
7309;BME280;3695;53.330;9.876;2023-03-16T06:14:55;102778.47;;;-0.45;100.00
7309;BME280;3695;53.330;9.876;2023-03-16T06:17:21;102844.56;;;-0.37;100.00
7309;BME280;3695;53.330;9.876;2023-03-16T06:19:48;102916.13;;;-0.31;100.00
7309;BME280;3695;53.330;9.876;2023-03-16T06:22:15;102918.22;;;-0.22;100.00
7309;BME280;3695;53.330;9.876;2023-03-16T06:24:42;102848.25;;;-0.25;100.00
7309;BME280;3695;53.330;9.876;2023-03-16T06:27:08;102830.38;;;-0.23;100.00
7309;BME280;3695;53.330;9.876;2023-03-16T06:29:35;102755.75;;;-0.23;100.00
7309;BME280;3695;53.330;9.876;2023-03-16T06:32:03;102968.84;;;-0.08;100.00
7309;BME280;3695;53.330;9.876;2023-03-16T06:34:30;102955.91;;;0.01;100.00
7309;BME280;3695;53.330;9.876;2023-03-16T06:36:56;102841.56;;;-0.04;100.00
7309;BME280;3695;53.330;9.876;2023-03-16T06:39:23;103053.69;;;0.14;100.00
7309;BME280;3695;53.330;9.876;2023-03-16T06:41:49;103119.88;;;0.22;100.00
7309;BME280;3695;53.330;9.876;2023-03-16T06:44:16;103002.56;;;0.22;100.00
7309;BME280;3695;53.330;9.876;2023-03-16T06:46:42;103050.16;;;0.28;100.00
7309;BME280;3695;53.330;9.876;2023-03-16T06:49:10;102927.88;;;0.22;100.00
7309;BME280;3695;53.330;9.876;2023-03-16T06:51:36;103049.88;;;0.32;100.00
7309;BME280;3695;53.330;9.876;2023-03-16T06:54:03;103075.88;;;0.43;100.00
7309;BME280;3695;53.330;9.876;2023-03-16T06:56:29;103066.91;;;0.44;100.00
7309;BME280;3695;53.330;9.876;2023-03-16T06:58:56;102981.53;;;0.44;100.00
7309;BME280;3695;53.330;9.876;2023-03-16T07:01:23;103168.22;;;0.60;100.00
7309;BME280;3695;53.330;9.876;2023-03-16T07:03:49;103060.63;;;0.59;100.00
7309;BME280;3695;53.330;9.876;2023-03-16T07:06:17;103161.06;;;0.75;100.00
7309;BME280;3695;53.330;9.876;2023-03-16T07:08:43;103114.53;;;0.79;100.00
7309;BME280;3695;53.330;9.876;2023-03-16T07:11:10;103147.03;;;0.85;100.00
7309;BME280;3695;53.330;9.876;2023-03-16T07:13:37;103139.69;;;0.89;100.00
7309;BME280;3695;53.330;9.876;2023-03-16T07:16:03;103230.59;;;1.02;100.00
7309;BME280;3695;53.330;9.876;2023-03-16T07:18:30;103313.47;;;1.14;100.00
7309;BME280;3695;53.330;9.876;2023-03-16T07:20:56;103223.72;;;1.12;100.00
7309;BME280;3695;53.330;9.876;2023-03-16T07:23:25;103360.78;;;1.26;100.00
7309;BME280;3695;53.330;9.876;2023-03-16T07:25:51;103399.34;;;1.37;100.00
7309;BME280;3695;53.330;9.876;2023-03-16T07:28:18;103395.19;;;1.47;100.00
7309;BME280;3695;53.330;9.876;2023-03-16T07:30:45;103320.06;;;1.51;100.00
7309;BME280;3695;53.330;9.876;2023-03-16T07:33:11;103348.22;;;1.57;100.00
7309;BME280;3695;53.330;9.876;2023-03-16T07:35:38;103227.28;;;1.53;100.00
7309;BME280;3695;53.330;9.876;2023-03-16T07:38:05;103495.03;;;1.74;100.00
7309;BME280;3695;53.330;9.876;2023-03-16T07:40:35;103195.44;;;1.63;100.00
7309;BME280;3695;53.330;9.876;2023-03-16T07:43:01;103395.81;;;1.79;100.00
7309;BME280;3695;53.330;9.876;2023-03-16T07:45:28;103367.81;;;1.84;100.00
7309;BME280;3695;53.330;9.876;2023-03-16T07:47:55;103304.31;;;1.88;100.00
7309;BME280;3695;53.330;9.876;2023-03-16T07:50:22;103462.97;;;2.03;100.00
7309;BME280;3695;53.330;9.876;2023-03-16T07:52:48;103516.56;;;2.15;100.00
7309;BME280;3695;53.330;9.876;2023-03-16T07:55:15;103595.19;;;2.27;100.00
7309;BME280;3695;53.330;9.876;2023-03-16T07:57:43;103556.56;;;2.31;100.00
7309;BME280;3695;53.330;9.876;2023-03-16T08:00:13;103320.53;;;2.26;100.00
7309;BME280;3695;53.330;9.876;2023-03-16T08:02:40;103666.91;;;2.50;100.00
7309;BME280;3695;53.330;9.876;2023-03-16T08:05:07;103489.56;;;2.47;100.00
7309;BME280;3695;53.330;9.876;2023-03-16T08:07:35;103483.72;;;2.55;100.00
7309;BME280;3695;53.330;9.876;2023-03-16T08:10:02;103734.06;;;2.76;100.00
7309;BME280;3695;53.330;9.876;2023-03-16T08:12:28;103639.91;;;2.82;100.00
7309;BME280;3695;53.330;9.876;2023-03-16T08:14:56;103726.81;;;2.92;100.00
7309;BME280;3695;53.330;9.876;2023-03-16T08:17:22;103684.88;;;3.05;100.00
7309;BME280;3695;53.330;9.876;2023-03-16T08:19:49;103764.50;;;3.17;100.00
7309;BME280;3695;53.330;9.876;2023-03-16T08:22:15;103745.91;;;3.29;100.00
7309;BME280;3695;53.330;9.876;2023-03-16T08:24:42;103790.63;;;3.42;100.00
7309;BME280;3695;53.330;9.876;2023-03-16T08:27:08;103968.94;;;3.64;100.00
7309;BME280;3695;53.330;9.876;2023-03-16T08:29:35;103707.66;;;3.54;100.00
7309;BME280;3695;53.330;9.876;2023-03-16T08:32:03;103863.84;;;3.71;100.00
7309;BME280;3695;53.330;9.876;2023-03-16T08:34:30;103838.38;;;3.78;100.00
7309;BME280;3695;53.330;9.876;2023-03-16T08:36:57;103938.56;;;4.06;100.00
7309;BME280;3695;53.330;9.876;2023-03-16T08:39:24;103905.22;;;4.23;100.00
7309;BME280;3695;53.330;9.876;2023-03-16T08:41:51;103507.81;;;4.11;100.00
7309;BME280;3695;53.330;9.876;2023-03-16T08:44:19;103829.09;;;4.51;100.00
7309;BME280;3695;53.330;9.876;2023-03-16T08:46:47;103463.06;;;4.49;100.00
7309;BME280;3695;53.330;9.876;2023-03-16T08:49:17;103856.41;;;4.70;100.00
7309;BME280;3695;53.330;9.876;2023-03-16T08:51:45;103733.13;;;4.65;100.00
7309;BME280;3695;53.330;9.876;2023-03-16T08:54:11;103983.97;;;4.91;100.00
7309;BME280;3695;53.330;9.876;2023-03-16T08:56:38;104005.53;;;5.17;100.00
7309;BME280;3695;53.330;9.876;2023-03-16T08:59:04;103423.63;;;5.08;100.00
7309;BME280;3695;53.330;9.876;2023-03-16T09:01:30;103630.59;;;5.21;100.00
7309;BME280;3695;53.330;9.876;2023-03-16T09:03:58;103448.28;;;5.26;100.00
7309;BME280;3695;53.330;9.876;2023-03-16T09:06:26;103573.53;;;5.52;100.00
7309;BME280;3695;53.330;9.876;2023-03-16T09:08:53;103426.06;;;5.46;100.00
7309;BME280;3695;53.330;9.876;2023-03-16T09:11:20;103186.56;;;5.36;100.00
7309;BME280;3695;53.330;9.876;2023-03-16T09:13:47;103708.91;;;5.77;100.00
7309;BME280;3695;53.330;9.876;2023-03-16T09:16:14;103194.31;;;5.73;100.00
7309;BME280;3695;53.330;9.876;2023-03-16T09:18:41;103154.72;;;5.96;100.00
7309;BME280;3695;53.330;9.876;2023-03-16T09:21:09;102715.56;;;5.91;100.00
7309;BME280;3695;53.330;9.876;2023-03-16T09:23:39;102228.00;;;6.13;100.00
7309;BME280;3695;53.330;9.876;2023-03-16T09:26:07;101653.00;;;5.96;100.00
7309;BME280;3695;53.330;9.876;2023-03-16T09:28:35;101959.94;;;6.28;100.00
7309;BME280;3695;53.330;9.876;2023-03-16T09:31:03;100478.88;;;6.33;100.00
7309;BME280;3695;53.330;9.876;2023-03-16T09:33:30;98440.06;;;6.40;100.00
7309;BME280;3695;53.330;9.876;2023-03-16T09:35:58;97422.84;;;6.38;100.00
7309;BME280;3695;53.330;9.876;2023-03-16T09:38:26;96631.50;;;6.38;100.00
7309;BME280;3695;53.330;9.876;2023-03-16T09:40:57;94915.03;;;6.37;100.00
7309;BME280;3695;53.330;9.876;2023-03-16T09:46:24;94699.44;;;6.55;100.00
7309;BME280;3695;53.330;9.876;2023-03-16T09:48:53;95277.97;;;6.61;100.00
7309;BME280;3695;53.330;9.876;2023-03-16T09:51:24;95761.50;;;6.93;100.00
7309;BME280;3695;53.330;9.876;2023-03-16T09:53:58;96306.00;;;6.84;100.00
7309;BME280;3695;53.330;9.876;2023-03-16T09:56:32;97247.38;;;6.95;100.00
7309;BME280;3695;53.330;9.876;2023-03-16T09:59:01;97491.66;;;7.29;100.00
7309;BME280;3695;53.330;9.876;2023-03-16T10:01:37;97712.00;;;7.12;100.00
7309;BME280;3695;53.330;9.876;2023-03-16T10:04:14;97938.94;;;7.02;100.00
7309;BME280;3695;53.330;9.876;2023-03-16T10:06:49;98391.09;;;7.09;100.00
7309;BME280;3695;53.330;9.876;2023-03-16T10:09:27;99022.38;;;7.08;100.00
7309;BME280;3695;53.330;9.876;2023-03-16T10:11:59;99665.44;;;7.19;100.00
7309;BME280;3695;53.330;9.876;2023-03-16T10:14:30;100159.63;;;7.11;100.00
7309;BME280;3695;53.330;9.876;2023-03-16T10:17:00;100486.97;;;7.29;100.00
7309;BME280;3695;53.330;9.876;2023-03-16T10:19:33;100473.03;;;7.12;100.00
7309;BME280;3695;53.330;9.876;2023-03-16T10:22:12;100477.19;;;7.14;100.00
7309;BME280;3695;53.330;9.876;2023-03-16T10:24:46;100536.03;;;7.11;100.00
7309;BME280;3695;53.330;9.876;2023-03-16T10:27:23;100558.22;;;7.13;100.00
7309;BME280;3695;53.330;9.876;2023-03-16T10:29:51;100627.50;;;7.19;100.00
7309;BME280;3695;53.330;9.876;2023-03-16T10:32:18;100857.41;;;7.69;100.00
7309;BME280;3695;53.330;9.876;2023-03-16T10:34:52;100775.09;;;7.86;100.00
7309;BME280;3695;53.330;9.876;2023-03-16T10:37:19;100732.13;;;7.84;100.00
7309;BME280;3695;53.330;9.876;2023-03-16T10:39:47;100590.34;;;7.62;100.00
7309;BME280;3695;53.330;9.876;2023-03-16T10:42:17;100694.06;;;7.60;100.00
7309;BME280;3695;53.330;9.876;2023-03-16T10:44:46;100694.09;;;7.66;100.00
7309;BME280;3695;53.330;9.876;2023-03-16T10:47:16;100729.38;;;7.71;100.00
7309;BME280;3695;53.330;9.876;2023-03-16T10:49:44;100688.25;;;7.63;100.00
7309;BME280;3695;53.330;9.876;2023-03-16T10:52:17;100798.38;;;7.94;100.00
7309;BME280;3695;53.330;9.876;2023-03-16T10:54:49;100569.13;;;7.52;100.00
7309;BME280;3695;53.330;9.876;2023-03-16T10:57:24;100604.16;;;7.39;100.00
7309;BME280;3695;53.330;9.876;2023-03-16T10:59:54;100731.56;;;7.54;100.00
7309;BME280;3695;53.330;9.876;2023-03-16T11:02:22;100792.88;;;7.74;100.00
7309;BME280;3695;53.330;9.876;2023-03-16T11:04:51;100675.38;;;7.58;100.00
7309;BME280;3695;53.330;9.876;2023-03-16T11:07:20;100793.28;;;7.71;100.00
7309;BME280;3695;53.330;9.876;2023-03-16T11:09:49;100776.47;;;7.69;100.00
7309;BME280;3695;53.330;9.876;2023-03-16T11:12:23;100804.97;;;7.84;100.00
7309;BME280;3695;53.330;9.876;2023-03-16T11:14:50;100740.19;;;7.78;100.00
7309;BME280;3695;53.330;9.876;2023-03-16T11:17:21;100848.75;;;7.80;100.00
7309;BME280;3695;53.330;9.876;2023-03-16T11:19:51;100755.53;;;7.71;100.00
7309;BME280;3695;53.330;9.876;2023-03-16T11:22:21;100900.28;;;7.92;100.00
7309;BME280;3695;53.330;9.876;2023-03-16T11:24:49;100833.25;;;7.95;100.00
7309;BME280;3695;53.330;9.876;2023-03-16T11:27:23;100847.03;;;8.07;100.00
7309;BME280;3695;53.330;9.876;2023-03-16T11:30:02;100953.22;;;8.20;100.00
7309;BME280;3695;53.330;9.876;2023-03-16T11:32:32;101094.09;;;8.52;100.00
7309;BME280;3695;53.330;9.876;2023-03-16T11:35:01;100944.81;;;8.37;100.00
7309;BME280;3695;53.330;9.876;2023-03-16T11:37:40;100945.03;;;8.42;100.00
7309;BME280;3695;53.330;9.876;2023-03-16T11:40:22;101013.41;;;8.42;100.00
7309;BME280;3695;53.330;9.876;2023-03-16T11:43:01;100999.69;;;8.44;100.00
7309;BME280;3695;53.330;9.876;2023-03-16T11:45:35;101081.72;;;8.64;100.00
7309;BME280;3695;53.330;9.876;2023-03-16T11:48:23;100862.34;;;8.34;100.00
7309;BME280;3695;53.330;9.876;2023-03-16T11:51:00;100949.84;;;8.46;100.00
7309;BME280;3695;53.330;9.876;2023-03-16T11:53:47;100863.84;;;8.50;100.00
7309;BME280;3695;53.330;9.876;2023-03-16T11:56:20;100791.09;;;8.42;100.00
7309;BME280;3695;53.330;9.876;2023-03-16T11:59:04;100915.47;;;8.68;100.00
7309;BME280;3695;53.330;9.876;2023-03-16T12:01:43;100785.13;;;8.53;100.00
7309;BME280;3695;53.330;9.876;2023-03-16T12:04:36;100716.94;;;8.51;100.00
7309;BME280;3695;53.330;9.876;2023-03-16T12:07:23;100884.09;;;8.74;100.00
7309;BME280;3695;53.330;9.876;2023-03-16T12:10:09;100711.38;;;8.59;100.00
7309;BME280;3695;53.330;9.876;2023-03-16T12:12:52;100778.72;;;8.67;100.00
7309;BME280;3695;53.330;9.876;2023-03-16T12:15:29;100677.72;;;8.55;100.00
7309;BME280;3695;53.330;9.876;2023-03-16T12:17:59;100785.78;;;8.75;100.00
7309;BME280;3695;53.330;9.876;2023-03-16T12:20:31;100572.97;;;8.50;100.00
7309;BME280;3695;53.330;9.876;2023-03-16T12:23:04;100720.50;;;8.71;100.00
7309;BME280;3695;53.330;9.876;2023-03-16T12:25:35;100792.88;;;9.09;100.00
7309;BME280;3695;53.330;9.876;2023-03-16T12:28:09;100719.44;;;9.19;100.00
7309;BME280;3695;53.330;9.876;2023-03-16T12:30:43;100601.53;;;9.11;100.00
7309;BME280;3695;53.330;9.876;2023-03-16T12:33:18;100538.78;;;8.96;100.00
7309;BME280;3695;53.330;9.876;2023-03-16T12:35:54;100505.16;;;8.78;100.00
7309;BME280;3695;53.330;9.876;2023-03-16T12:38:33;100476.00;;;8.94;100.00
7309;BME280;3695;53.330;9.876;2023-03-16T12:41:12;100403.72;;;8.82;100.00
7309;BME280;3695;53.330;9.876;2023-03-16T12:43:50;100378.69;;;8.94;100.00
7309;BME280;3695;53.330;9.876;2023-03-16T12:46:26;100365.41;;;8.99;100.00
7309;BME280;3695;53.330;9.876;2023-03-16T12:48:55;100175.31;;;9.05;100.00
7309;BME280;3695;53.330;9.876;2023-03-16T12:51:33;100167.06;;;9.18;100.00
7309;BME280;3695;53.330;9.876;2023-03-16T12:53:59;99953.22;;;9.08;100.00
7309;BME280;3695;53.330;9.876;2023-03-16T12:56:28;100010.84;;;9.20;100.00
7309;BME280;3695;53.330;9.876;2023-03-16T12:58:57;99905.50;;;9.02;100.00
7309;BME280;3695;53.330;9.876;2023-03-16T13:01:26;99916.31;;;9.02;100.00
7309;BME280;3695;53.330;9.876;2023-03-16T13:03:59;100025.69;;;8.99;100.00
7309;BME280;3695;53.330;9.876;2023-03-16T13:06:32;99773.38;;;8.94;100.00
7309;BME280;3695;53.330;9.876;2023-03-16T13:09:02;99635.00;;;8.92;100.00
7309;BME280;3695;53.330;9.876;2023-03-16T13:11:39;99820.97;;;8.95;100.00
7309;BME280;3695;53.330;9.876;2023-03-16T13:14:07;99903.72;;;8.77;100.00
7309;BME280;3695;53.330;9.876;2023-03-16T13:16:36;100756.47;;;8.78;100.00
7309;BME280;3695;53.330;9.876;2023-03-16T13:19:22;100806.78;;;8.93;100.00
7309;BME280;3695;53.330;9.876;2023-03-16T13:22:01;101130.44;;;8.77;100.00